createdAt,value
2022-10-14T00:00:06.730Z,13.20
2022-10-14T00:06:17.049Z,13.10
2022-10-14T00:12:19.628Z,12.90
2022-10-14T00:18:21.819Z,12.80
2022-10-14T00:24:25.419Z,12.70
2022-10-14T00:30:27.602Z,12.60
2022-10-14T00:36:33.288Z,12.50
2022-10-14T00:42:35.919Z,12.40
2022-10-14T00:48:38.054Z,12.30
2022-10-14T00:54:46.407Z,12.20
2022-10-14T01:00:48.673Z,12.10
2022-10-14T01:07:03.677Z,12.00
2022-10-14T01:13:29.875Z,11.90
2022-10-14T01:19:45.147Z,11.90
2022-10-14T01:26:00.766Z,11.80
2022-10-14T01:32:13.416Z,11.70
2022-10-14T01:38:31.338Z,11.60
2022-10-14T01:44:41.392Z,11.60
2022-10-14T01:50:46.527Z,11.60
2022-10-14T01:56:50.273Z,11.60
2022-10-14T02:02:53.521Z,11.60
2022-10-14T02:09:17.303Z,11.50
2022-10-14T02:15:38.684Z,11.50
2022-10-14T02:21:48.585Z,11.50
2022-10-14T02:27:52.554Z,11.50
2022-10-14T02:33:58.268Z,11.50
2022-10-14T02:40:09.032Z,11.50
2022-10-14T02:46:11.146Z,11.50
2022-10-14T02:52:15.290Z,11.50
2022-10-14T02:58:17.480Z,11.60
2022-10-14T03:04:19.816Z,11.60
2022-10-14T03:10:21.890Z,11.80
2022-10-14T03:16:24.794Z,11.90
2022-10-14T03:22:28.300Z,11.90
2022-10-14T03:28:32.070Z,11.90
2022-10-14T03:34:46.368Z,11.80
2022-10-14T03:40:55.142Z,11.90
2022-10-14T03:46:57.786Z,11.80
2022-10-14T03:53:06.047Z,11.70
2022-10-14T03:59:11.919Z,11.70
2022-10-14T04:05:14.898Z,11.60
2022-10-14T04:11:20.878Z,11.50
2022-10-14T04:17:26.427Z,11.40
2022-10-14T04:23:31.055Z,11.40
2022-10-14T04:29:39.393Z,11.40
2022-10-14T04:35:49.076Z,11.50
2022-10-14T04:41:59.140Z,11.50
2022-10-14T04:48:01.561Z,11.60
2022-10-14T04:54:04.462Z,11.70
2022-10-14T05:00:18.918Z,11.90
2022-10-14T05:06:30.690Z,12.20
2022-10-14T05:12:33.406Z,12.30
2022-10-14T05:18:37.976Z,12.60
2022-10-14T05:24:44.705Z,13.20
2022-10-14T05:30:47.802Z,12.90
2022-10-14T05:36:50.120Z,12.70
2022-10-14T05:42:53.246Z,12.80
2022-10-14T05:48:57.707Z,12.90
2022-10-14T05:55:00.616Z,12.90
2022-10-14T06:01:04.290Z,13.20
2022-10-14T06:07:07.553Z,13.60
2022-10-14T06:13:11.154Z,14.20
2022-10-14T06:19:15.058Z,14.50
2022-10-14T06:25:17.454Z,14.90
2022-10-14T06:31:19.855Z,15.30
2022-10-14T06:37:22.536Z,15.80
2022-10-14T06:43:25.016Z,16.90
2022-10-14T06:49:27.079Z,17.10
2022-10-14T06:55:29.335Z,16.30
2022-10-14T07:01:31.646Z,16.10
2022-10-14T07:07:33.910Z,16.10
2022-10-14T07:13:36.000Z,17.50
2022-10-14T07:19:38.192Z,23.80
2022-10-14T07:25:40.530Z,27.30
2022-10-14T07:31:42.595Z,27.80
2022-10-14T07:37:45.051Z,28.80
2022-10-14T07:43:49.509Z,24.50
2022-10-14T07:49:51.642Z,25.50
2022-10-14T07:55:56.521Z,28.50
2022-10-14T08:01:59.494Z,29.40
2022-10-14T08:08:02.038Z,28.30
2022-10-14T08:14:05.317Z,27.10
2022-10-14T08:20:07.969Z,24.90
2022-10-14T08:26:24.203Z,23.00
2022-10-14T08:32:26.395Z,21.30
2022-10-14T08:38:29.514Z,19.90
2022-10-14T08:44:47.747Z,19.30
2022-10-14T08:51:16.518Z,18.90
2022-10-14T08:57:21.778Z,19.20
2022-10-14T09:03:33.824Z,20.30
2022-10-14T09:09:43.726Z,20.80
2022-10-14T09:15:50.598Z,20.80
2022-10-14T09:21:56.186Z,19.60
2022-10-14T09:27:58.587Z,19.50
2022-10-14T09:34:00.832Z,19.80
2022-10-14T09:40:39.852Z,19.70
2022-10-14T09:46:42.478Z,20.20
2022-10-14T09:52:49.155Z,19.90
2022-10-14T09:58:55.475Z,19.20
2022-10-14T10:04:58.702Z,19.10
2022-10-14T10:11:11.032Z,19.30
2022-10-14T10:17:19.170Z,19.90
2022-10-14T10:23:25.516Z,20.30
2022-10-14T10:29:35.650Z,20.30
2022-10-14T10:36:02.316Z,21.00
2022-10-14T10:42:39.971Z,20.20
2022-10-14T10:48:55.927Z,19.90
2022-10-14T10:55:22.949Z,20.20
2022-10-14T11:01:46.247Z,21.10
2022-10-14T11:08:18.622Z,26.50
2022-10-14T11:14:40.971Z,22.30
2022-10-14T11:21:09.947Z,22.70
2022-10-14T11:27:37.825Z,23.40
2022-10-14T11:33:55.028Z,23.10
2022-10-14T11:40:18.721Z,27.90
2022-10-14T11:46:22.788Z,23.10
2022-10-14T11:52:38.473Z,23.80
2022-10-14T11:58:43.481Z,23.60
2022-10-14T12:04:50.932Z,22.50
2022-10-14T12:11:03.525Z,21.90
2022-10-14T12:17:24.711Z,21.10
2022-10-14T12:23:36.300Z,20.50
2022-10-14T12:29:43.153Z,20.70
2022-10-14T12:35:50.537Z,20.40
2022-10-14T12:42:22.531Z,19.90
2022-10-14T12:48:28.043Z,19.50
2022-10-14T12:54:31.512Z,19.70
2022-10-14T13:00:40.833Z,19.50
2022-10-14T13:06:43.382Z,19.50
2022-10-14T13:12:45.791Z,19.10
2022-10-14T13:18:50.889Z,19.10
2022-10-14T13:24:53.066Z,18.90
2022-10-14T13:31:05.022Z,18.60
2022-10-14T13:37:34.547Z,18.10
2022-10-14T13:43:42.910Z,17.80
2022-10-14T13:49:45.240Z,17.50
2022-10-14T13:55:54.479Z,17.30
2022-10-14T14:02:01.541Z,17.10
2022-10-14T14:08:30.596Z,17.10
2022-10-14T14:14:37.501Z,16.90
2022-10-14T14:20:39.762Z,16.80
2022-10-14T14:26:41.858Z,16.70
2022-10-14T14:32:44.102Z,16.60
2022-10-14T14:38:53.859Z,16.50
2022-10-14T14:45:01.440Z,16.40
2022-10-14T14:51:03.464Z,16.30
2022-10-14T14:57:08.770Z,16.20
2022-10-14T15:03:10.885Z,16.20
2022-10-14T15:09:14.736Z,16.10
2022-10-14T15:15:53.045Z,16.00
2022-10-14T15:22:32.333Z,15.90
2022-10-14T15:28:34.638Z,15.90
2022-10-14T15:34:36.726Z,15.80
2022-10-14T15:40:38.822Z,15.80
2022-10-14T15:47:01.554Z,15.80
2022-10-14T15:53:03.520Z,15.70
2022-10-14T15:59:05.937Z,15.70
2022-10-14T16:05:19.735Z,15.70
2022-10-14T16:11:31.178Z,15.70
2022-10-14T16:17:33.268Z,15.70
2022-10-14T16:23:36.238Z,15.70
2022-10-14T16:29:38.258Z,15.70
2022-10-14T16:35:40.260Z,15.70
2022-10-14T16:41:43.202Z,15.70
2022-10-14T16:47:48.339Z,15.60
2022-10-14T16:53:51.754Z,15.50
2022-10-14T16:59:54.102Z,15.40
2022-10-14T17:05:59.149Z,15.30
2022-10-14T17:12:08.131Z,15.30
2022-10-14T17:18:16.780Z,15.30
2022-10-14T17:24:20.351Z,15.20
2022-10-14T17:30:22.486Z,15.00
2022-10-14T17:36:33.432Z,14.80
2022-10-14T17:42:35.743Z,14.70
2022-10-14T17:48:42.598Z,14.60
2022-10-14T17:54:45.544Z,14.50
2022-10-14T18:00:48.342Z,14.40
2022-10-14T18:06:50.725Z,14.30
2022-10-14T18:12:54.811Z,14.20
2022-10-14T18:18:57.901Z,14.10
2022-10-14T18:25:00.487Z,14.10
2022-10-14T18:31:17.647Z,14.00
2022-10-14T18:37:19.931Z,13.90
2022-10-14T18:43:22.300Z,13.90
2022-10-14T18:49:24.679Z,14.00
2022-10-14T18:55:27.013Z,14.00
2022-10-14T19:01:30.505Z,14.00
2022-10-14T19:07:32.724Z,14.00
2022-10-14T19:13:35.585Z,13.90
2022-10-14T19:19:39.914Z,13.90
2022-10-14T19:25:42.381Z,13.80
2022-10-14T19:31:44.762Z,13.70
2022-10-14T19:37:47.392Z,13.70
2022-10-14T19:43:49.703Z,13.60
2022-10-14T19:49:52.049Z,13.60
2022-10-14T19:55:54.457Z,13.50
2022-10-14T20:01:56.749Z,13.50
2022-10-14T20:07:59.016Z,13.40
2022-10-14T20:14:01.255Z,13.40
2022-10-14T20:20:04.013Z,13.40
2022-10-14T20:26:07.194Z,13.30
2022-10-14T20:32:09.529Z,13.30
2022-10-14T20:38:11.885Z,13.20
2022-10-14T20:44:18.199Z,13.10
2022-10-14T20:50:22.765Z,13.00
2022-10-14T20:56:25.208Z,12.90
2022-10-14T21:02:27.511Z,12.90
2022-10-14T21:08:29.808Z,12.70
2022-10-14T21:14:31.960Z,12.60
2022-10-14T21:20:35.309Z,12.50
2022-10-14T21:26:37.455Z,12.40
2022-10-14T21:32:39.794Z,12.40
2022-10-14T21:38:42.509Z,12.40
2022-10-14T21:44:44.631Z,12.30
2022-10-14T21:50:46.852Z,12.30
2022-10-14T21:56:49.127Z,12.20
2022-10-14T22:02:55.330Z,12.10
2022-10-14T22:08:59.462Z,12.00
2022-10-14T22:21:07.193Z,11.80
2022-10-14T22:27:09.146Z,11.70
2022-10-14T22:33:11.145Z,11.70
2022-10-14T22:39:15.873Z,11.50
2022-10-14T22:45:18.159Z,11.40
2022-10-14T22:51:20.591Z,11.30
2022-10-14T22:57:22.799Z,11.20
2022-10-14T23:03:25.155Z,11.10
2022-10-14T23:09:27.387Z,11.10
2022-10-14T23:15:29.662Z,11.00
2022-10-14T23:21:34.476Z,10.90
2022-10-14T23:27:36.837Z,10.80
2022-10-14T23:33:38.922Z,10.70
2022-10-14T23:39:40.848Z,10.60
2022-10-14T23:45:43.996Z,10.60
2022-10-14T23:51:45.929Z,10.50
2022-10-14T23:57:48.023Z,10.40
